sensor_id;sensor_type;location;lat;lon;timestamp;temperature;humidity
50758;DHT22;36732;47.980;11.652;2022-11-20T00:01:23;10.20;61.40
50758;DHT22;36732;47.980;11.652;2022-11-20T00:03:52;10.10;61.30
50758;DHT22;36732;47.980;11.652;2022-11-20T00:06:19;10.10;61.30
50758;DHT22;36732;47.980;11.652;2022-11-20T00:08:46;10.10;61.30
50758;DHT22;36732;47.980;11.652;2022-11-20T00:11:15;10.10;61.20
50758;DHT22;36732;47.980;11.652;2022-11-20T00:13:47;10.10;61.20
50758;DHT22;36732;47.980;11.652;2022-11-20T00:16:17;10.10;61.20
50758;DHT22;36732;47.980;11.652;2022-11-20T00:18:44;10.10;61.20
50758;DHT22;36732;47.980;11.652;2022-11-20T00:21:15;10.10;61.20
50758;DHT22;36732;47.980;11.652;2022-11-20T00:23:52;10.10;61.20
50758;DHT22;36732;47.980;11.652;2022-11-20T00:26:20;10.10;61.20
50758;DHT22;36732;47.980;11.652;2022-11-20T00:28:57;10.10;61.20
50758;DHT22;36732;47.980;11.652;2022-11-20T00:31:25;10.10;61.20
50758;DHT22;36732;47.980;11.652;2022-11-20T00:33:51;10.10;61.30
50758;DHT22;36732;47.980;11.652;2022-11-20T00:36:19;10.00;61.40
50758;DHT22;36732;47.980;11.652;2022-11-20T00:38:57;10.00;61.40
50758;DHT22;36732;47.980;11.652;2022-11-20T00:41:24;10.00;61.40
50758;DHT22;36732;47.980;11.652;2022-11-20T00:43:54;10.00;61.50
50758;DHT22;36732;47.980;11.652;2022-11-20T00:46:23;10.00;61.60
50758;DHT22;36732;47.980;11.652;2022-11-20T00:48:50;10.00;61.80
50758;DHT22;36732;47.980;11.652;2022-11-20T00:51:18;10.00;61.80
50758;DHT22;36732;47.980;11.652;2022-11-20T00:53:45;10.10;61.90
50758;DHT22;36732;47.980;11.652;2022-11-20T00:56:16;10.00;61.90
50758;DHT22;36732;47.980;11.652;2022-11-20T00:58:44;10.00;62.00
50758;DHT22;36732;47.980;11.652;2022-11-20T01:01:17;10.00;62.00
50758;DHT22;36732;47.980;11.652;2022-11-20T01:03:46;10.10;62.10
50758;DHT22;36732;47.980;11.652;2022-11-20T01:06:24;10.00;62.20
50758;DHT22;36732;47.980;11.652;2022-11-20T01:08:53;10.00;62.20
50758;DHT22;36732;47.980;11.652;2022-11-20T01:11:32;10.10;62.20
50758;DHT22;36732;47.980;11.652;2022-11-20T01:14:00;10.10;62.10
50758;DHT22;36732;47.980;11.652;2022-11-20T01:16:28;10.10;62.20
50758;DHT22;36732;47.980;11.652;2022-11-20T01:18:58;10.10;62.30
50758;DHT22;36732;47.980;11.652;2022-11-20T01:21:33;10.10;62.30
50758;DHT22;36732;47.980;11.652;2022-11-20T01:24:03;10.10;62.20
50758;DHT22;36732;47.980;11.652;2022-11-20T01:26:33;10.10;62.30
50758;DHT22;36732;47.980;11.652;2022-11-20T01:29:01;10.10;62.30
50758;DHT22;36732;47.980;11.652;2022-11-20T01:31:30;10.10;62.30
50758;DHT22;36732;47.980;11.652;2022-11-20T01:34:00;10.10;62.30
50758;DHT22;36732;47.980;11.652;2022-11-20T01:36:36;10.10;62.30
50758;DHT22;36732;47.980;11.652;2022-11-20T01:39:05;10.10;62.40
50758;DHT22;36732;47.980;11.652;2022-11-20T01:41:42;10.10;62.40
50758;DHT22;36732;47.980;11.652;2022-11-20T01:47:37;10.10;62.30
50758;DHT22;36732;47.980;11.652;2022-11-20T01:50:14;10.10;62.30
50758;DHT22;36732;47.980;11.652;2022-11-20T01:53:04;10.10;62.20
50758;DHT22;36732;47.980;11.652;2022-11-20T01:55:33;10.10;62.20
50758;DHT22;36732;47.980;11.652;2022-11-20T01:58:01;10.10;62.30
50758;DHT22;36732;47.980;11.652;2022-11-20T02:00:28;10.10;62.30
50758;DHT22;36732;47.980;11.652;2022-11-20T02:03:17;10.10;62.30
50758;DHT22;36732;47.980;11.652;2022-11-20T02:08:34;10.10;62.30
50758;DHT22;36732;47.980;11.652;2022-11-20T02:11:00;10.20;62.30
50758;DHT22;36732;47.980;11.652;2022-11-20T02:13:26;10.20;62.30
50758;DHT22;36732;47.980;11.652;2022-11-20T02:16:24;10.10;62.30
50758;DHT22;36732;47.980;11.652;2022-11-20T02:18:52;10.10;62.20
50758;DHT22;36732;47.980;11.652;2022-11-20T02:21:49;10.20;62.30
50758;DHT22;36732;47.980;11.652;2022-11-20T02:24:35;10.10;61.90
50758;DHT22;36732;47.980;11.652;2022-11-20T02:27:19;10.20;62.20
50758;DHT22;36732;47.980;11.652;2022-11-20T02:32:26;10.20;61.90
50758;DHT22;36732;47.980;11.652;2022-11-20T02:34:53;10.20;62.00
50758;DHT22;36732;47.980;11.652;2022-11-20T02:37:20;10.20;61.90
50758;DHT22;36732;47.980;11.652;2022-11-20T02:39:52;10.20;61.90
50758;DHT22;36732;47.980;11.652;2022-11-20T02:42:18;10.20;61.90
50758;DHT22;36732;47.980;11.652;2022-11-20T02:44:44;10.20;61.90
50758;DHT22;36732;47.980;11.652;2022-11-20T02:47:10;10.20;61.90
50758;DHT22;36732;47.980;11.652;2022-11-20T02:49:35;10.20;61.90
50758;DHT22;36732;47.980;11.652;2022-11-20T02:52:01;10.20;61.80
50758;DHT22;36732;47.980;11.652;2022-11-20T02:54:27;10.20;61.60
50758;DHT22;36732;47.980;11.652;2022-11-20T02:56:53;10.20;61.60
50758;DHT22;36732;47.980;11.652;2022-11-20T02:59:19;10.20;61.50
50758;DHT22;36732;47.980;11.652;2022-11-20T03:01:45;10.20;61.50
50758;DHT22;36732;47.980;11.652;2022-11-20T03:04:10;10.10;61.40
50758;DHT22;36732;47.980;11.652;2022-11-20T03:06:36;10.10;61.40
50758;DHT22;36732;47.980;11.652;2022-11-20T03:09:02;10.20;61.50
50758;DHT22;36732;47.980;11.652;2022-11-20T03:11:28;10.10;61.30
50758;DHT22;36732;47.980;11.652;2022-11-20T03:13:54;10.10;61.30
50758;DHT22;36732;47.980;11.652;2022-11-20T03:16:22;10.10;61.30
50758;DHT22;36732;47.980;11.652;2022-11-20T03:18:48;10.10;61.20
50758;DHT22;36732;47.980;11.652;2022-11-20T03:21:15;10.10;61.20
50758;DHT22;36732;47.980;11.652;2022-11-20T03:23:41;10.10;61.10
50758;DHT22;36732;47.980;11.652;2022-11-20T03:26:18;10.10;61.10
50758;DHT22;36732;47.980;11.652;2022-11-20T03:28:48;10.10;61.00
50758;DHT22;36732;47.980;11.652;2022-11-20T03:31:17;10.10;61.00
50758;DHT22;36732;47.980;11.652;2022-11-20T03:33:44;10.10;61.10
50758;DHT22;36732;47.980;11.652;2022-11-20T03:36:12;10.10;61.00
50758;DHT22;36732;47.980;11.652;2022-11-20T03:38:40;10.00;61.00
50758;DHT22;36732;47.980;11.652;2022-11-20T03:41:13;10.00;61.00
50758;DHT22;36732;47.980;11.652;2022-11-20T03:43:41;10.00;61.00
50758;DHT22;36732;47.980;11.652;2022-11-20T03:46:07;10.00;61.10
50758;DHT22;36732;47.980;11.652;2022-11-20T03:48:33;10.00;61.10
50758;DHT22;36732;47.980;11.652;2022-11-20T03:51:17;10.00;61.20
50758;DHT22;36732;47.980;11.652;2022-11-20T03:53:51;10.00;61.10
50758;DHT22;36732;47.980;11.652;2022-11-20T03:56:20;10.00;61.20
50758;DHT22;36732;47.980;11.652;2022-11-20T03:58:48;10.00;61.30
50758;DHT22;36732;47.980;11.652;2022-11-20T04:01:16;10.00;61.30
50758;DHT22;36732;47.980;11.652;2022-11-20T04:03:44;10.00;61.30
50758;DHT22;36732;47.980;11.652;2022-11-20T04:06:25;10.00;61.30
50758;DHT22;36732;47.980;11.652;2022-11-20T04:08:55;10.00;61.30
50758;DHT22;36732;47.980;11.652;2022-11-20T04:11:24;10.00;61.30
50758;DHT22;36732;47.980;11.652;2022-11-20T04:13:58;10.00;61.30
50758;DHT22;36732;47.980;11.652;2022-11-20T04:16:26;10.00;61.10
50758;DHT22;36732;47.980;11.652;2022-11-20T04:18:57;10.00;61.30
50758;DHT22;36732;47.980;11.652;2022-11-20T04:21:26;10.00;61.30
50758;DHT22;36732;47.980;11.652;2022-11-20T04:23:52;10.00;61.30
50758;DHT22;36732;47.980;11.652;2022-11-20T04:26:19;10.00;61.30
50758;DHT22;36732;47.980;11.652;2022-11-20T04:28:45;10.00;61.30
50758;DHT22;36732;47.980;11.652;2022-11-20T04:31:13;10.00;61.30
50758;DHT22;36732;47.980;11.652;2022-11-20T04:33:43;10.00;61.90
50758;DHT22;36732;47.980;11.652;2022-11-20T04:36:20;10.00;61.30
50758;DHT22;36732;47.980;11.652;2022-11-20T04:38:50;10.00;61.10
50758;DHT22;36732;47.980;11.652;2022-11-20T04:41:21;10.00;61.20
50758;DHT22;36732;47.980;11.652;2022-11-20T04:43:49;10.00;61.30
50758;DHT22;36732;47.980;11.652;2022-11-20T04:46:17;10.00;61.10
50758;DHT22;36732;47.980;11.652;2022-11-20T04:48:44;10.00;61.20
50758;DHT22;36732;47.980;11.652;2022-11-20T04:51:10;10.00;61.10
50758;DHT22;36732;47.980;11.652;2022-11-20T04:53:35;10.00;61.00
50758;DHT22;36732;47.980;11.652;2022-11-20T04:56:06;10.00;61.20
50758;DHT22;36732;47.980;11.652;2022-11-20T04:58:34;10.00;61.20
50758;DHT22;36732;47.980;11.652;2022-11-20T05:01:04;10.00;61.20
50758;DHT22;36732;47.980;11.652;2022-11-20T05:03:31;10.00;61.20
50758;DHT22;36732;47.980;11.652;2022-11-20T05:06:05;10.00;61.10
50758;DHT22;36732;47.980;11.652;2022-11-20T05:08:32;10.00;61.20
50758;DHT22;36732;47.980;11.652;2022-11-20T05:11:05;10.00;61.00
50758;DHT22;36732;47.980;11.652;2022-11-20T05:13:32;10.00;61.10
50758;DHT22;36732;47.980;11.652;2022-11-20T05:16:08;10.00;61.20
50758;DHT22;36732;47.980;11.652;2022-11-20T05:18:36;10.00;61.20
50758;DHT22;36732;47.980;11.652;2022-11-20T05:21:03;10.00;61.30
50758;DHT22;36732;47.980;11.652;2022-11-20T05:23:30;10.00;61.30
50758;DHT22;36732;47.980;11.652;2022-11-20T05:25:57;10.00;61.40
50758;DHT22;36732;47.980;11.652;2022-11-20T05:28:24;10.00;61.40
50758;DHT22;36732;47.980;11.652;2022-11-20T05:30:50;10.00;61.40
50758;DHT22;36732;47.980;11.652;2022-11-20T05:33:17;10.00;61.40
50758;DHT22;36732;47.980;11.652;2022-11-20T05:35:43;10.00;61.50
50758;DHT22;36732;47.980;11.652;2022-11-20T05:38:09;10.00;61.40
50758;DHT22;36732;47.980;11.652;2022-11-20T05:40:35;10.00;61.40
50758;DHT22;36732;47.980;11.652;2022-11-20T05:43:01;10.00;61.50
50758;DHT22;36732;47.980;11.652;2022-11-20T05:45:27;10.00;61.50
50758;DHT22;36732;47.980;11.652;2022-11-20T05:47:53;10.00;61.50
50758;DHT22;36732;47.980;11.652;2022-11-20T05:50:23;10.00;61.50
50758;DHT22;36732;47.980;11.652;2022-11-20T05:52:49;10.00;61.60
50758;DHT22;36732;47.980;11.652;2022-11-20T05:55:15;10.00;61.60
50758;DHT22;36732;47.980;11.652;2022-11-20T05:57:41;10.00;61.60
50758;DHT22;36732;47.980;11.652;2022-11-20T06:00:07;10.00;61.50
50758;DHT22;36732;47.980;11.652;2022-11-20T06:02:35;10.00;61.60
50758;DHT22;36732;47.980;11.652;2022-11-20T06:05:01;10.00;61.50
50758;DHT22;36732;47.980;11.652;2022-11-20T06:07:27;10.00;61.60
50758;DHT22;36732;47.980;11.652;2022-11-20T06:09:53;10.00;61.50
50758;DHT22;36732;47.980;11.652;2022-11-20T06:12:19;10.00;61.60
50758;DHT22;36732;47.980;11.652;2022-11-20T06:14:44;10.00;61.60
50758;DHT22;36732;47.980;11.652;2022-11-20T06:17:10;10.00;61.40
50758;DHT22;36732;47.980;11.652;2022-11-20T06:19:36;10.00;61.40
50758;DHT22;36732;47.980;11.652;2022-11-20T06:22:01;10.00;61.30
50758;DHT22;36732;47.980;11.652;2022-11-20T06:24:27;10.00;61.20
50758;DHT22;36732;47.980;11.652;2022-11-20T06:26:53;10.00;61.10
50758;DHT22;36732;47.980;11.652;2022-11-20T06:29:18;10.00;60.90
50758;DHT22;36732;47.980;11.652;2022-11-20T06:31:44;10.00;60.90
50758;DHT22;36732;47.980;11.652;2022-11-20T06:34:10;10.00;60.70
50758;DHT22;36732;47.980;11.652;2022-11-20T06:36:36;10.00;60.50
50758;DHT22;36732;47.980;11.652;2022-11-20T06:39:03;10.00;61.00
50758;DHT22;36732;47.980;11.652;2022-11-20T06:41:29;9.90;60.20
50758;DHT22;36732;47.980;11.652;2022-11-20T06:43:54;9.90;60.10
50758;DHT22;36732;47.980;11.652;2022-11-20T06:46:20;9.90;60.00
50758;DHT22;36732;47.980;11.652;2022-11-20T06:48:48;9.90;59.80
50758;DHT22;36732;47.980;11.652;2022-11-20T06:51:14;9.90;59.80
50758;DHT22;36732;47.980;11.652;2022-11-20T06:53:40;9.90;59.80
50758;DHT22;36732;47.980;11.652;2022-11-20T06:56:07;9.90;59.70
50758;DHT22;36732;47.980;11.652;2022-11-20T06:58:34;9.80;59.60
50758;DHT22;36732;47.980;11.652;2022-11-20T07:01:03;9.80;59.70
50758;DHT22;36732;47.980;11.652;2022-11-20T07:03:36;9.90;59.70
50758;DHT22;36732;47.980;11.652;2022-11-20T07:06:02;9.80;59.80
50758;DHT22;36732;47.980;11.652;2022-11-20T07:08:28;9.80;59.70
50758;DHT22;36732;47.980;11.652;2022-11-20T07:10:59;9.80;59.80
50758;DHT22;36732;47.980;11.652;2022-11-20T07:13:26;9.80;59.70
50758;DHT22;36732;47.980;11.652;2022-11-20T07:15:53;9.80;59.90
50758;DHT22;36732;47.980;11.652;2022-11-20T07:18:19;9.80;60.00
50758;DHT22;36732;47.980;11.652;2022-11-20T07:20:45;9.80;60.00
50758;DHT22;36732;47.980;11.652;2022-11-20T07:23:10;9.80;60.00
50758;DHT22;36732;47.980;11.652;2022-11-20T07:25:36;9.70;60.00
50758;DHT22;36732;47.980;11.652;2022-11-20T07:28:02;9.80;60.20
50758;DHT22;36732;47.980;11.652;2022-11-20T07:30:29;9.80;60.20
50758;DHT22;36732;47.980;11.652;2022-11-20T07:32:56;9.70;60.30
50758;DHT22;36732;47.980;11.652;2022-11-20T07:35:23;9.70;60.30
50758;DHT22;36732;47.980;11.652;2022-11-20T07:37:49;9.80;60.50
50758;DHT22;36732;47.980;11.652;2022-11-20T07:40:16;9.80;60.70
50758;DHT22;36732;47.980;11.652;2022-11-20T07:42:53;9.80;60.90
50758;DHT22;36732;47.980;11.652;2022-11-20T07:45:22;9.80;61.00
50758;DHT22;36732;47.980;11.652;2022-11-20T07:47:49;9.80;61.10
50758;DHT22;36732;47.980;11.652;2022-11-20T07:50:15;9.80;61.20
50758;DHT22;36732;47.980;11.652;2022-11-20T07:52:41;9.80;61.40
50758;DHT22;36732;47.980;11.652;2022-11-20T07:55:08;9.80;61.50
50758;DHT22;36732;47.980;11.652;2022-11-20T07:57:34;9.80;61.70
50758;DHT22;36732;47.980;11.652;2022-11-20T08:00:00;9.80;61.60
50758;DHT22;36732;47.980;11.652;2022-11-20T08:02:26;9.90;61.50
50758;DHT22;36732;47.980;11.652;2022-11-20T08:04:51;9.80;61.30
50758;DHT22;36732;47.980;11.652;2022-11-20T08:07:17;9.90;61.30
50758;DHT22;36732;47.980;11.652;2022-11-20T08:09:43;9.90;61.30
50758;DHT22;36732;47.980;11.652;2022-11-20T08:12:17;9.90;61.30
50758;DHT22;36732;47.980;11.652;2022-11-20T08:15:04;9.90;61.10
50758;DHT22;36732;47.980;11.652;2022-11-20T08:17:30;9.90;61.10
50758;DHT22;36732;47.980;11.652;2022-11-20T08:19:57;10.00;61.00
50758;DHT22;36732;47.980;11.652;2022-11-20T08:22:22;10.00;61.00
50758;DHT22;36732;47.980;11.652;2022-11-20T08:24:48;10.00;60.90
50758;DHT22;36732;47.980;11.652;2022-11-20T08:27:14;10.00;60.70
50758;DHT22;36732;47.980;11.652;2022-11-20T08:29:40;10.00;60.70
50758;DHT22;36732;47.980;11.652;2022-11-20T08:32:06;10.00;60.50
50758;DHT22;36732;47.980;11.652;2022-11-20T08:34:31;10.00;60.40
50758;DHT22;36732;47.980;11.652;2022-11-20T08:36:57;10.10;60.60
50758;DHT22;36732;47.980;11.652;2022-11-20T08:39:23;10.10;60.50
50758;DHT22;36732;47.980;11.652;2022-11-20T08:41:48;10.10;60.50
50758;DHT22;36732;47.980;11.652;2022-11-20T08:44:14;10.10;60.40
50758;DHT22;36732;47.980;11.652;2022-11-20T08:46:41;10.10;60.30
50758;DHT22;36732;47.980;11.652;2022-11-20T08:49:10;10.10;60.30
50758;DHT22;36732;47.980;11.652;2022-11-20T08:51:38;10.10;60.20
50758;DHT22;36732;47.980;11.652;2022-11-20T08:54:05;10.10;60.00
50758;DHT22;36732;47.980;11.652;2022-11-20T08:56:31;10.10;60.00
50758;DHT22;36732;47.980;11.652;2022-11-20T08:58:57;10.10;60.00
50758;DHT22;36732;47.980;11.652;2022-11-20T09:01:25;10.20;60.10
50758;DHT22;36732;47.980;11.652;2022-11-20T09:03:51;10.20;60.10
50758;DHT22;36732;47.980;11.652;2022-11-20T09:06:17;10.20;60.50
50758;DHT22;36732;47.980;11.652;2022-11-20T09:08:43;10.20;60.00
50758;DHT22;36732;47.980;11.652;2022-11-20T09:11:10;10.20;59.90
50758;DHT22;36732;47.980;11.652;2022-11-20T09:13:36;10.20;59.90
50758;DHT22;36732;47.980;11.652;2022-11-20T09:16:07;10.20;59.80
50758;DHT22;36732;47.980;11.652;2022-11-20T09:18:35;10.20;59.80
50758;DHT22;36732;47.980;11.652;2022-11-20T09:21:09;10.20;59.80
50758;DHT22;36732;47.980;11.652;2022-11-20T09:23:36;10.20;59.70
50758;DHT22;36732;47.980;11.652;2022-11-20T09:26:13;10.30;59.90
50758;DHT22;36732;47.980;11.652;2022-11-20T09:28:39;10.30;59.30
50758;DHT22;36732;47.980;11.652;2022-11-20T09:31:11;10.30;59.50
50758;DHT22;36732;47.980;11.652;2022-11-20T09:33:56;10.30;59.20
50758;DHT22;36732;47.980;11.652;2022-11-20T09:36:22;10.30;59.50
50758;DHT22;36732;47.980;11.652;2022-11-20T09:38:48;10.30;59.50
50758;DHT22;36732;47.980;11.652;2022-11-20T09:50:06;10.30;59.00
50758;DHT22;36732;47.980;11.652;2022-11-20T09:56:03;10.30;58.50
50758;DHT22;36732;47.980;11.652;2022-11-20T09:58:34;10.30;59.00
50758;DHT22;36732;47.980;11.652;2022-11-20T10:01:13;10.30;59.10
50758;DHT22;36732;47.980;11.652;2022-11-20T10:06:21;10.40;59.00
50758;DHT22;36732;47.980;11.652;2022-11-20T10:09:13;10.40;59.00
50758;DHT22;36732;47.980;11.652;2022-11-20T10:15:05;10.40;58.50
50758;DHT22;36732;47.980;11.652;2022-11-20T10:20:25;10.40;59.20
50758;DHT22;36732;47.980;11.652;2022-11-20T10:26:06;10.50;59.00
50758;DHT22;36732;47.980;11.652;2022-11-20T10:31:44;10.50;59.10
50758;DHT22;36732;47.980;11.652;2022-11-20T10:34:33;10.50;58.90
50758;DHT22;36732;47.980;11.652;2022-11-20T10:37:17;10.50;58.70
50758;DHT22;36732;47.980;11.652;2022-11-20T10:45:53;10.50;58.60
50758;DHT22;36732;47.980;11.652;2022-11-20T10:48:23;10.50;58.80
50758;DHT22;36732;47.980;11.652;2022-11-20T10:54:27;10.50;58.40
50758;DHT22;36732;47.980;11.652;2022-11-20T10:57:07;10.50;57.90
50758;DHT22;36732;47.980;11.652;2022-11-20T11:00:03;10.50;57.90
50758;DHT22;36732;47.980;11.652;2022-11-20T11:02:41;10.60;58.50
50758;DHT22;36732;47.980;11.652;2022-11-20T11:07:47;10.60;58.70
50758;DHT22;36732;47.980;11.652;2022-11-20T11:13:01;10.60;58.80
50758;DHT22;36732;47.980;11.652;2022-11-20T11:15:29;10.60;58.70
50758;DHT22;36732;47.980;11.652;2022-11-20T11:18:02;10.60;58.20
50758;DHT22;36732;47.980;11.652;2022-11-20T11:20:28;10.60;58.40
50758;DHT22;36732;47.980;11.652;2022-11-20T11:22:58;10.60;58.50
50758;DHT22;36732;47.980;11.652;2022-11-20T11:25:33;10.60;58.40
50758;DHT22;36732;47.980;11.652;2022-11-20T11:28:04;10.60;58.10
50758;DHT22;36732;47.980;11.652;2022-11-20T11:30:45;10.60;58.10
50758;DHT22;36732;47.980;11.652;2022-11-20T11:35:49;10.70;57.70
50758;DHT22;36732;47.980;11.652;2022-11-20T11:38:23;10.70;57.90
50758;DHT22;36732;47.980;11.652;2022-11-20T11:40:56;10.70;57.90
50758;DHT22;36732;47.980;11.652;2022-11-20T11:43:25;10.70;57.90
50758;DHT22;36732;47.980;11.652;2022-11-20T11:48:59;10.70;58.10
50758;DHT22;36732;47.980;11.652;2022-11-20T11:54:56;10.70;57.90
50758;DHT22;36732;47.980;11.652;2022-11-20T12:00:13;10.70;58.20
50758;DHT22;36732;47.980;11.652;2022-11-20T12:16:27;10.70;58.50
50758;DHT22;36732;47.980;11.652;2022-11-20T12:18:53;10.70;58.80
50758;DHT22;36732;47.980;11.652;2022-11-20T12:38:36;10.80;58.20
50758;DHT22;36732;47.980;11.652;2022-11-20T13:05:19;10.80;58.80
50758;DHT22;36732;47.980;11.652;2022-11-20T13:07:47;10.80;58.80
50758;DHT22;36732;47.980;11.652;2022-11-20T13:10:35;10.80;58.90
50758;DHT22;36732;47.980;11.652;2022-11-20T13:13:19;10.70;59.10
50758;DHT22;36732;47.980;11.652;2022-11-20T13:18:25;10.70;59.50
50758;DHT22;36732;47.980;11.652;2022-11-20T13:20:51;10.70;59.60
50758;DHT22;36732;47.980;11.652;2022-11-20T13:23:27;10.70;59.60
50758;DHT22;36732;47.980;11.652;2022-11-20T13:26:06;10.70;59.60
50758;DHT22;36732;47.980;11.652;2022-11-20T13:28:39;10.70;59.70
50758;DHT22;36732;47.980;11.652;2022-11-20T13:31:28;10.70;59.70
50758;DHT22;36732;47.980;11.652;2022-11-20T13:33:56;10.70;59.80
50758;DHT22;36732;47.980;11.652;2022-11-20T13:36:25;10.70;59.70
50758;DHT22;36732;47.980;11.652;2022-11-20T13:38:53;10.70;59.60
50758;DHT22;36732;47.980;11.652;2022-11-20T13:41:38;10.70;59.60
50758;DHT22;36732;47.980;11.652;2022-11-20T13:44:14;10.70;59.40
50758;DHT22;36732;47.980;11.652;2022-11-20T13:46:47;10.70;59.50
50758;DHT22;36732;47.980;11.652;2022-11-20T13:49:31;10.70;59.60
50758;DHT22;36732;47.980;11.652;2022-11-20T14:00:25;10.70;58.80
50758;DHT22;36732;47.980;11.652;2022-11-20T14:03:10;10.70;59.00
50758;DHT22;36732;47.980;11.652;2022-11-20T14:05:50;10.70;59.10
50758;DHT22;36732;47.980;11.652;2022-11-20T14:08:30;10.60;59.20
50758;DHT22;36732;47.980;11.652;2022-11-20T14:11:15;10.70;59.10
50758;DHT22;36732;47.980;11.652;2022-11-20T14:14:15;10.70;59.30
50758;DHT22;36732;47.980;11.652;2022-11-20T14:16:42;10.60;59.30
50758;DHT22;36732;47.980;11.652;2022-11-20T14:19:28;10.60;59.40
50758;DHT22;36732;47.980;11.652;2022-11-20T14:24:42;10.60;59.60
50758;DHT22;36732;47.980;11.652;2022-11-20T14:27:17;10.60;59.60
50758;DHT22;36732;47.980;11.652;2022-11-20T14:29:46;10.60;59.70
50758;DHT22;36732;47.980;11.652;2022-11-20T14:32:18;10.60;59.60
50758;DHT22;36732;47.980;11.652;2022-11-20T14:34:47;10.60;59.50
50758;DHT22;36732;47.980;11.652;2022-11-20T14:37:22;10.60;59.30
50758;DHT22;36732;47.980;11.652;2022-11-20T14:39:55;10.60;59.30
50758;DHT22;36732;47.980;11.652;2022-11-20T14:42:24;10.60;59.40
50758;DHT22;36732;47.980;11.652;2022-11-20T14:44:54;10.60;59.50
50758;DHT22;36732;47.980;11.652;2022-11-20T14:47:29;10.60;59.30
50758;DHT22;36732;47.980;11.652;2022-11-20T14:49:57;10.60;59.30
50758;DHT22;36732;47.980;11.652;2022-11-20T14:52:25;10.60;59.30
50758;DHT22;36732;47.980;11.652;2022-11-20T14:54:57;10.60;59.40
50758;DHT22;36732;47.980;11.652;2022-11-20T15:02:48;10.60;58.80
50758;DHT22;36732;47.980;11.652;2022-11-20T15:05:16;10.60;59.00
50758;DHT22;36732;47.980;11.652;2022-11-20T15:07:49;10.60;58.80
50758;DHT22;36732;47.980;11.652;2022-11-20T15:10:27;10.60;58.50
50758;DHT22;36732;47.980;11.652;2022-11-20T15:13:01;10.60;58.00
50758;DHT22;36732;47.980;11.652;2022-11-20T15:15:48;10.60;58.30
50758;DHT22;36732;47.980;11.652;2022-11-20T15:18:17;10.60;58.20
50758;DHT22;36732;47.980;11.652;2022-11-20T15:20:45;10.60;58.50
50758;DHT22;36732;47.980;11.652;2022-11-20T15:23:12;10.60;58.50
50758;DHT22;36732;47.980;11.652;2022-11-20T15:25:41;10.60;58.50
50758;DHT22;36732;47.980;11.652;2022-11-20T15:28:20;10.60;58.20
50758;DHT22;36732;47.980;11.652;2022-11-20T15:30:48;10.60;58.20
50758;DHT22;36732;47.980;11.652;2022-11-20T15:33:15;10.60;58.40
50758;DHT22;36732;47.980;11.652;2022-11-20T15:35:42;10.60;58.30
50758;DHT22;36732;47.980;11.652;2022-11-20T15:38:08;10.60;58.30
50758;DHT22;36732;47.980;11.652;2022-11-20T15:40:34;10.60;58.30
50758;DHT22;36732;47.980;11.652;2022-11-20T15:42:59;10.60;58.20
50758;DHT22;36732;47.980;11.652;2022-11-20T15:45:32;10.60;58.10
50758;DHT22;36732;47.980;11.652;2022-11-20T15:48:01;10.60;58.10
50758;DHT22;36732;47.980;11.652;2022-11-20T15:50:38;10.60;58.20
50758;DHT22;36732;47.980;11.652;2022-11-20T15:53:09;10.50;57.90
50758;DHT22;36732;47.980;11.652;2022-11-20T15:55:35;10.60;58.10
50758;DHT22;36732;47.980;11.652;2022-11-20T15:58:01;10.50;58.10
50758;DHT22;36732;47.980;11.652;2022-11-20T16:00:27;10.50;58.10
50758;DHT22;36732;47.980;11.652;2022-11-20T16:02:52;10.60;58.20
50758;DHT22;36732;47.980;11.652;2022-11-20T16:05:18;10.50;58.00
50758;DHT22;36732;47.980;11.652;2022-11-20T16:07:44;10.50;58.10
50758;DHT22;36732;47.980;11.652;2022-11-20T16:10:09;10.50;58.20
50758;DHT22;36732;47.980;11.652;2022-11-20T16:12:35;10.50;58.00
50758;DHT22;36732;47.980;11.652;2022-11-20T16:15:19;10.50;58.00
50758;DHT22;36732;47.980;11.652;2022-11-20T16:18:04;10.50;57.80
50758;DHT22;36732;47.980;11.652;2022-11-20T16:20:29;10.50;57.70
50758;DHT22;36732;47.980;11.652;2022-11-20T16:22:55;10.50;57.80
50758;DHT22;36732;47.980;11.652;2022-11-20T16:25:21;10.50;57.70
50758;DHT22;36732;47.980;11.652;2022-11-20T16:27:47;10.50;58.20
50758;DHT22;36732;47.980;11.652;2022-11-20T16:30:12;10.50;57.50
50758;DHT22;36732;47.980;11.652;2022-11-20T16:32:38;10.50;57.40
50758;DHT22;36732;47.980;11.652;2022-11-20T16:35:04;10.50;57.30
50758;DHT22;36732;47.980;11.652;2022-11-20T16:37:32;10.50;57.20
50758;DHT22;36732;47.980;11.652;2022-11-20T16:39:58;10.40;57.10
50758;DHT22;36732;47.980;11.652;2022-11-20T16:42:24;10.40;57.10
50758;DHT22;36732;47.980;11.652;2022-11-20T16:44:50;10.40;57.10
50758;DHT22;36732;47.980;11.652;2022-11-20T16:47:15;10.40;57.00
50758;DHT22;36732;47.980;11.652;2022-11-20T16:49:41;10.40;56.90
50758;DHT22;36732;47.980;11.652;2022-11-20T16:52:07;10.40;57.50
50758;DHT22;36732;47.980;11.652;2022-11-20T16:54:33;10.40;56.80
50758;DHT22;36732;47.980;11.652;2022-11-20T16:56:59;10.40;56.80
50758;DHT22;36732;47.980;11.652;2022-11-20T16:59:27;10.40;56.70
50758;DHT22;36732;47.980;11.652;2022-11-20T17:01:52;10.40;56.70
50758;DHT22;36732;47.980;11.652;2022-11-20T17:04:18;10.40;56.60
50758;DHT22;36732;47.980;11.652;2022-11-20T17:06:44;10.30;56.60
50758;DHT22;36732;47.980;11.652;2022-11-20T17:09:10;10.40;56.60
50758;DHT22;36732;47.980;11.652;2022-11-20T17:11:37;10.30;56.50
50758;DHT22;36732;47.980;11.652;2022-11-20T17:14:04;10.30;56.40
50758;DHT22;36732;47.980;11.652;2022-11-20T17:16:33;10.30;56.50
50758;DHT22;36732;47.980;11.652;2022-11-20T17:19:00;10.20;56.40
50758;DHT22;36732;47.980;11.652;2022-11-20T17:21:26;10.20;56.40
50758;DHT22;36732;47.980;11.652;2022-11-20T17:23:52;10.20;56.30
50758;DHT22;36732;47.980;11.652;2022-11-20T17:26:22;10.20;56.30
50758;DHT22;36732;47.980;11.652;2022-11-20T17:28:56;10.20;56.10
50758;DHT22;36732;47.980;11.652;2022-11-20T17:31:24;10.20;56.00
50758;DHT22;36732;47.980;11.652;2022-11-20T17:33:51;10.10;56.20
50758;DHT22;36732;47.980;11.652;2022-11-20T17:36:18;10.10;56.30
50758;DHT22;36732;47.980;11.652;2022-11-20T17:38:44;10.10;56.20
50758;DHT22;36732;47.980;11.652;2022-11-20T17:41:15;10.10;56.20
50758;DHT22;36732;47.980;11.652;2022-11-20T17:43:43;10.00;55.90
50758;DHT22;36732;47.980;11.652;2022-11-20T17:46:12;10.00;56.00
50758;DHT22;36732;47.980;11.652;2022-11-20T17:48:46;10.00;55.90
50758;DHT22;36732;47.980;11.652;2022-11-20T17:51:14;10.00;55.90